Time;durP1;ratioP1;P1;durP2;ratioP2;P2;SDS_P1;SDS_P2;PMS_P1;PMS_P2;Temp;Humidity;BMP_temperature;BMP_pressure;BME280_temperature;BME280_humidity;BME280_pressure;Samples;Min_cycle;Max_cycle;Signal;HPM_P1;HPM_P2
2023/08/29 00:02:48;;;;;;;37.80;28.75;;;;;;;-147.65;100.00;57646.63;10490687;28;20040;-77
2023/08/29 00:07:48;;;;;;;39.47;29.80;;;;;;;-147.65;100.00;57646.63;10447390;28;20033;-77
2023/08/29 00:12:49;;;;;;;42.97;29.77;;;;;;;-147.65;100.00;57646.63;10465223;28;20033;-77
2023/08/29 00:17:49;;;;;;;36.88;28.77;;;;;;;-147.65;100.00;57646.63;10470431;28;20122;-77
2023/08/29 00:22:50;;;;;;;45.47;32.10;;;;;;;-147.65;100.00;57646.63;10471509;28;20037;-76
2023/08/29 00:27:50;;;;;;;43.30;33.30;;;;;;;-147.65;100.00;57646.63;10487636;28;20044;-77
2023/08/29 00:32:51;;;;;;;35.45;27.10;;;;;;;-147.65;100.00;57646.63;10488644;28;20494;-77
2023/08/29 00:37:51;;;;;;;38.63;28.27;;;;;;;-147.65;100.00;57646.63;10448483;28;20044;-77
2023/08/29 00:42:52;;;;;;;46.10;29.58;;;;;;;-147.65;100.00;57646.63;10452556;28;20036;-77
2023/08/29 00:47:52;;;;;;;48.10;34.17;;;;;;;-147.65;100.00;57646.63;10488142;28;20476;-77
2023/08/29 00:52:56;;;;;;;47.92;32.42;;;;;;;-147.65;100.00;57646.63;10486588;28;20045;-77
2023/08/29 00:57:59;;;;;;;45.10;32.88;;;;;;;-147.65;100.00;57646.63;10485920;28;20396;-76
2023/08/29 01:03:00;;;;;;;47.47;32.53;;;;;;;-147.65;100.00;57646.63;10460163;28;20075;-77
2023/08/29 01:08:00;;;;;;;47.22;32.78;;;;;;;-147.65;100.00;57646.63;10459732;28;20389;-77
2023/08/29 01:13:19;;;;;;;59.25;31.45;;;;;;;-147.65;100.00;57646.63;10469778;28;20087;-77
2023/08/29 01:18:20;;;;;;;36.95;26.42;;;;;;;-147.65;100.00;57646.63;10467555;28;20397;-77
2023/08/29 01:23:33;;;;;;;41.78;31.10;;;;;;;-147.65;100.00;57646.63;10454881;28;20032;-77
2023/08/29 01:28:34;;;;;;;38.80;28.73;;;;;;;-147.65;100.00;57646.63;10441855;28;20067;-77
2023/08/29 01:33:34;;;;;;;45.40;30.90;;;;;;;-147.65;100.00;57646.63;10424248;28;20040;-77
2023/08/29 01:38:35;;;;;;;46.20;30.33;;;;;;;-147.65;100.00;57646.63;10405717;28;20072;-77
2023/08/29 01:43:35;;;;;;;48.47;32.25;;;;;;;-147.65;100.00;57646.63;10449388;28;20128;-76
2023/08/29 01:48:36;;;;;;;40.78;29.83;;;;;;;-147.65;100.00;57646.63;10404358;28;20043;-77
2023/08/29 01:53:38;;;;;;;43.67;28.52;;;;;;;-147.65;100.00;57646.63;10460071;28;20390;-77
2023/08/29 01:58:39;;;;;;;44.97;30.77;;;;;;;-147.65;100.00;57646.63;10426404;28;20057;-76
2023/08/29 02:03:39;;;;;;;47.53;31.17;;;;;;;-147.65;100.00;57646.63;10448309;28;20041;-76
2023/08/29 02:08:41;;;;;;;50.13;32.05;;;;;;;-147.65;100.00;57646.63;10467332;28;20115;-76
2023/08/29 02:13:41;;;;;;;40.90;29.33;;;;;;;-147.65;100.00;57646.63;10458055;28;20036;-77
2023/08/29 02:18:42;;;;;;;48.58;32.42;;;;;;;-147.65;100.00;57646.63;10471112;28;20404;-77
2023/08/29 02:23:42;;;;;;;46.33;30.13;;;;;;;-147.65;100.00;57646.63;10456240;28;20043;-76
2023/08/29 02:28:43;;;;;;;46.25;29.55;;;;;;;-147.65;100.00;57646.63;10469013;28;20511;-75
2023/08/29 02:33:43;;;;;;;44.45;27.70;;;;;;;-147.65;100.00;57646.63;10457555;28;20045;-76
2023/08/29 02:38:44;;;;;;;44.40;29.23;;;;;;;-147.65;100.00;57646.63;10483946;28;20490;-76
2023/08/29 02:43:45;;;;;;;45.17;27.50;;;;;;;-147.65;100.00;57646.63;10484364;28;20449;-76
2023/08/29 02:48:45;;;;;;;47.45;30.33;;;;;;;-147.65;100.00;57646.63;10480926;28;20110;-77
2023/08/29 02:53:46;;;;;;;44.35;28.42;;;;;;;-147.65;100.00;57646.63;10482439;28;20157;-76
2023/08/29 02:58:46;;;;;;;51.22;31.10;;;;;;;-147.65;100.00;57646.63;10483147;28;20036;-76
2023/08/29 03:03:47;;;;;;;46.25;27.20;;;;;;;-147.65;100.00;57646.63;10481837;28;20036;-76
2023/08/29 03:08:48;;;;;;;47.50;30.42;;;;;;;-147.65;100.00;57646.63;10463279;28;20036;-76
2023/08/29 03:13:48;;;;;;;46.85;30.48;;;;;;;-147.65;100.00;57646.63;10481750;28;20060;-76
2023/08/29 03:18:50;;;;;;;49.20;31.73;;;;;;;-147.65;100.00;57646.63;10482277;28;20123;-76
2023/08/29 03:23:50;;;;;;;49.35;32.22;;;;;;;-147.65;100.00;57646.63;10472058;28;20135;-77
2023/08/29 03:28:51;;;;;;;49.55;32.15;;;;;;;-147.65;100.00;57646.63;10441564;28;20058;-80
2023/08/29 03:33:51;;;;;;;55.85;33.78;;;;;;;-147.65;100.00;57646.63;10485282;28;20555;-80
2023/08/29 03:38:52;;;;;;;57.33;33.42;;;;;;;-147.65;100.00;57646.63;10480469;28;20055;-81
2023/08/29 03:43:52;;;;;;;50.15;32.22;;;;;;;-147.65;100.00;57646.63;10478005;28;20477;-80
2023/08/29 03:48:53;;;;;;;57.50;37.13;;;;;;;-147.65;100.00;57646.63;10461971;28;20037;-77
2023/08/29 03:53:53;;;;;;;61.65;35.08;;;;;;;-147.65;100.00;57646.63;10487893;28;20033;-76
2023/08/29 03:58:54;;;;;;;72.32;42.80;;;;;;;-147.65;100.00;57646.63;10480632;28;20041;-77
2023/08/29 04:03:55;;;;;;;62.83;40.58;;;;;;;-147.65;100.00;57646.63;10470262;28;20488;-78
2023/08/29 04:08:55;;;;;;;61.38;40.97;;;;;;;-147.65;100.00;57646.63;10458446;28;20076;-77
2023/08/29 04:13:56;;;;;;;73.72;41.78;;;;;;;-147.65;100.00;57646.63;10482038;28;20043;-76
2023/08/29 04:18:57;;;;;;;66.47;38.55;;;;;;;-147.65;100.00;57646.63;10521269;28;20032;-77
2023/08/29 04:23:58;;;;;;;67.40;40.60;;;;;;;-147.65;100.00;57646.63;10475364;28;20374;-77
2023/08/29 04:28:58;;;;;;;64.20;40.33;;;;;;;-147.65;100.00;57646.63;10412324;28;20037;-77
2023/08/29 04:34:00;;;;;;;66.18;40.25;;;;;;;-147.65;100.00;57646.63;10460581;28;20235;-76
2023/08/29 04:39:00;;;;;;;64.13;40.50;;;;;;;-147.65;100.00;57646.63;10478207;28;20119;-76
2023/08/29 04:44:01;;;;;;;68.30;41.28;;;;;;;-147.65;100.00;57646.63;10491130;28;20497;-77
2023/08/29 04:49:02;;;;;;;62.00;39.08;;;;;;;-147.65;100.00;57646.63;10477558;28;20051;-77
2023/08/29 04:54:03;;;;;;;60.95;40.65;;;;;;;-147.65;100.00;57646.63;10486308;28;20033;-77
2023/08/29 04:59:03;;;;;;;63.30;41.53;;;;;;;-147.65;100.00;57646.63;10487946;28;20048;-77
2023/08/29 05:04:04;;;;;;;70.15;42.67;;;;;;;-147.65;100.00;57646.63;10456656;28;20423;-76
2023/08/29 05:09:06;;;;;;;62.13;40.88;;;;;;;-147.65;100.00;57646.63;10476728;28;20553;-76
2023/08/29 05:14:07;;;;;;;65.28;40.47;;;;;;;-147.65;100.00;57646.63;10474274;28;20463;-76
2023/08/29 05:19:08;;;;;;;63.15;40.55;;;;;;;-147.65;100.00;57646.63;10446251;28;20061;-76
2023/08/29 05:24:08;;;;;;;59.30;39.70;;;;;;;-147.65;100.00;57646.63;10432720;28;20047;-76
2023/08/29 05:29:09;;;;;;;65.30;40.67;;;;;;;-147.65;100.00;57646.63;10444783;28;20043;-77
2023/08/29 05:34:09;;;;;;;75.13;42.80;;;;;;;-147.65;100.00;57646.63;10433036;28;20040;-77
2023/08/29 05:39:10;;;;;;;58.28;38.28;;;;;;;-147.65;100.00;57646.63;10421809;28;20132;-76
2023/08/29 05:44:10;;;;;;;67.63;43.42;;;;;;;-147.65;100.00;57646.63;10404198;28;20068;-76
2023/08/29 05:49:11;;;;;;;67.38;41.22;;;;;;;-147.65;100.00;57646.63;10442360;28;20033;-76
2023/08/29 05:54:12;;;;;;;59.40;40.08;;;;;;;-147.65;100.00;57646.63;10434021;28;20031;-75
2023/08/29 05:59:12;;;;;;;66.00;40.63;;;;;;;-147.65;100.00;57646.63;10433367;28;20428;-75
2023/08/29 06:04:13;;;;;;;60.15;41.42;;;;;;;-147.65;100.00;57646.63;10441510;28;20405;-75
2023/08/29 06:09:13;;;;;;;58.90;38.47;;;;;;;-147.65;100.00;57646.63;10437500;28;20101;-76
2023/08/29 06:14:17;;;;;;;66.68;39.13;;;;;;;-147.65;100.00;57646.63;10423973;28;20048;-75
2023/08/29 06:19:17;;;;;;;61.85;38.88;;;;;;;-147.65;100.00;57646.63;10418076;28;20060;-78
2023/08/29 06:24:18;;;;;;;52.80;36.40;;;;;;;-147.65;100.00;57646.63;10455689;28;20033;-79
2023/08/29 06:29:18;;;;;;;48.38;36.75;;;;;;;-147.65;100.00;57646.63;10439481;28;20033;-78
2023/08/29 06:34:20;;;;;;;49.47;33.42;;;;;;;-147.65;100.00;57646.63;10404779;28;20397;-78
2023/08/29 06:39:20;;;;;;;44.67;32.37;;;;;;;-147.65;100.00;57646.63;10430471;28;20052;-78
2023/08/29 06:44:21;;;;;;;42.53;32.50;;;;;;;-147.65;100.00;57646.63;10480218;28;20109;-79
2023/08/29 06:49:21;;;;;;;38.92;29.95;;;;;;;-147.65;100.00;57646.63;10484472;28;20032;-79
2023/08/29 06:54:22;;;;;;;36.70;28.80;;;;;;;-147.65;100.00;57646.63;10484158;28;20097;-79
2023/08/29 06:59:23;;;;;;;32.70;25.40;;;;;;;-147.65;100.00;57646.63;10484483;28;20025;-80
2023/08/29 07:04:24;;;;;;;28.70;22.13;;;;;;;-147.65;100.00;57646.63;10482799;28;20128;-79
2023/08/29 07:09:27;;;;;;;22.02;17.67;;;;;;;-147.65;100.00;57646.63;10480232;28;20112;-79
2023/08/29 07:14:27;;;;;;;22.70;16.27;;;;;;;-147.65;100.00;57646.63;10481169;28;20407;-80
2023/08/29 07:19:29;;;;;;;17.92;14.40;;;;;;;-147.65;100.00;57646.63;10484901;28;20043;-80
2023/08/29 07:24:30;;;;;;;18.90;12.10;;;;;;;-147.65;100.00;57646.63;10473951;28;20051;-79
2023/08/29 07:29:30;;;;;;;16.70;12.20;;;;;;;-147.65;100.00;57646.63;10490947;28;20382;-80
2023/08/29 07:34:31;;;;;;;16.02;11.25;;;;;;;-147.65;100.00;57646.63;10491052;28;20064;-80
2023/08/29 07:39:32;;;;;;;14.03;10.57;;;;;;;-147.65;100.00;57646.63;10488931;28;20044;-80
2023/08/29 07:44:32;;;;;;;11.53;10.30;;;;;;;-147.65;100.00;57646.63;10422853;28;20025;-79
2023/08/29 07:49:33;;;;;;;11.10;8.30;;;;;;;-147.65;100.00;57646.63;10446667;28;20472;-79
2023/08/29 07:54:34;;;;;;;9.97;8.33;;;;;;;-147.65;100.00;57646.63;10448073;28;20786;-80
2023/08/29 07:59:34;;;;;;;7.63;6.37;;;;;;;-147.65;100.00;57646.63;10448307;28;20029;-78
2023/08/29 08:04:35;;;;;;;8.53;4.63;;;;;;;-147.65;100.00;57646.63;10447015;28;20049;-78
2023/08/29 08:09:35;;;;;;;9.57;6.07;;;;;;;-147.65;100.00;57646.63;10424271;28;20045;-78
2023/08/29 08:14:36;;;;;;;8.80;5.60;;;;;;;-147.65;100.00;57646.63;10448225;28;20136;-78
2023/08/29 08:19:37;;;;;;;10.83;6.63;;;;;;;-147.65;100.00;57646.63;10459652;28;20033;-79
2023/08/29 08:24:37;;;;;;;6.40;4.93;;;;;;;-147.65;100.00;57646.63;10417330;28;20128;-79
2023/08/29 08:29:38;;;;;;;25.20;17.87;;;;;;;-147.65;100.00;57646.63;10479325;28;20044;-80
2023/08/29 08:34:38;;;;;;;16.57;8.70;;;;;;;-147.65;100.00;57646.63;10472197;28;20568;-78
2023/08/29 08:39:39;;;;;;;8.53;7.20;;;;;;;-147.65;100.00;57646.63;10461495;28;20070;-82
2023/08/29 08:44:39;;;;;;;10.67;7.80;;;;;;;-147.65;100.00;57646.63;10483554;28;20075;-79
2023/08/29 08:49:40;;;;;;;323.97;82.13;;;;;;;-147.65;100.00;57646.63;10515478;28;20131;-80
2023/08/29 08:54:41;;;;;;;8.60;6.57;;;;;;;-147.65;100.00;57646.63;10407481;28;20048;-81
2023/08/29 08:59:42;;;;;;;12.55;7.72;;;;;;;-147.65;100.00;57646.63;10424831;28;20096;-82
2023/08/29 09:04:43;;;;;;;1999.90;999.90;;;;;;;-147.65;100.00;57646.63;10425822;28;20500;-81
2023/08/29 09:09:43;;;;;;;1999.90;999.90;;;;;;;-147.65;100.00;57646.63;10428024;28;20056;-79
2023/08/29 09:14:44;;;;;;;1999.90;999.90;;;;;;;-147.65;100.00;57646.63;10434003;28;20052;-80
2023/08/29 09:19:44;;;;;;;1999.90;999.90;;;;;;;-147.65;100.00;57646.63;10419474;28;20132;-79
2023/08/29 09:24:45;;;;;;;1999.90;999.90;;;;;;;-147.65;100.00;57646.63;10438659;28;20041;-79
2023/08/29 09:29:46;;;;;;;1999.90;999.90;;;;;;;-147.65;100.00;57646.63;10416017;28;20047;-79
2023/08/29 09:34:46;;;;;;;1999.90;999.90;;;;;;;-147.65;100.00;57646.63;10434328;28;20073;-79
2023/08/29 09:39:47;;;;;;;1999.90;999.90;;;;;;;-147.65;100.00;57646.63;10430469;28;20045;-80
2023/08/29 09:44:48;;;;;;;1999.90;999.90;;;;;;;-147.65;100.00;57646.63;10419181;28;20132;-79
2023/08/29 09:49:49;;;;;;;1999.90;999.90;;;;;;;-147.65;100.00;57646.63;10436141;28;20064;-80
2023/08/29 09:54:50;;;;;;;1999.90;999.90;;;;;;;-147.65;100.00;57646.63;10483811;28;20709;-80
2023/08/29 09:59:51;;;;;;;1999.90;999.90;;;;;;;-147.65;100.00;57646.63;10471020;28;20028;-80
2023/08/29 10:04:54;;;;;;;1999.90;999.90;;;;;;;-147.65;100.00;57646.63;10453550;28;20488;-81
2023/08/29 10:09:55;;;;;;;1999.90;999.90;;;;;;;-147.65;100.00;57646.63;10420515;28;20038;-81
2023/08/29 10:14:55;;;;;;;1999.90;999.90;;;;;;;-147.65;100.00;57646.63;10401097;28;20037;-81
2023/08/29 10:19:56;;;;;;;1999.90;999.90;;;;;;;-147.65;100.00;57646.63;10401266;28;20496;-81
2023/08/29 10:24:58;;;;;;;1999.90;999.90;;;;;;;-147.65;100.00;57646.63;10425323;28;20115;-81
2023/08/29 10:30:01;;;;;;;1999.90;999.90;;;;;;;-147.65;100.00;57646.63;10431440;28;20049;-81
2023/08/29 10:35:02;;;;;;;1999.90;999.90;;;;;;;-147.65;100.00;57646.63;10410733;28;20129;-80
2023/08/29 10:40:11;;;;;;;;;;;;;;;-147.65;100.00;57646.63;10433131;28;20041;-80
2023/08/29 10:45:13;;;;;;;1999.90;999.90;;;;;;;-147.65;100.00;57646.63;10439159;28;19920;-80
2023/08/29 10:50:21;;;;;;;1999.90;999.90;;;;;;;-147.65;100.00;57646.63;10478809;28;20078;-80
2023/08/29 10:55:22;;;;;;;1999.90;999.90;;;;;;;-147.65;100.00;57646.63;10441176;28;20037;-80
2023/08/29 11:00:43;;;;;;;1999.90;999.90;;;;;;;-147.65;100.00;57646.63;10440863;28;20116;-79
2023/08/29 11:05:52;;;;;;;1999.90;999.90;;;;;;;-147.65;100.00;57646.63;10435077;28;20048;-79
2023/08/29 11:11:12;;;;;;;1999.90;999.90;;;;;;;-147.65;100.00;57646.63;10400519;28;20041;-79
2023/08/29 11:16:12;;;;;;;1999.90;999.90;;;;;;;-147.65;100.00;57646.63;10400129;28;20049;-79
2023/08/29 11:21:15;;;;;;;1999.90;999.90;;;;;;;-147.65;100.00;57646.63;10417637;28;20048;-79
2023/08/29 11:26:16;;;;;;;1999.90;999.90;;;;;;;-147.65;100.00;57646.63;10440800;28;20033;-79
2023/08/29 11:31:18;;;;;;;1999.90;999.90;;;;;;;-147.65;100.00;57646.63;10440845;28;20067;-79
2023/08/29 11:36:18;;;;;;;184.88;178.32;;;;;;;-147.65;100.00;57646.63;10440324;28;20566;-79
2023/08/29 11:41:20;;;;;;;1357.93;690.43;;;;;;;-147.65;100.00;57646.63;10439861;28;20049;-79
2023/08/29 11:46:21;;;;;;;1999.90;999.90;;;;;;;-147.65;100.00;57646.63;10441740;28;20055;-79
2023/08/29 11:51:22;;;;;;;78.45;73.82;;;;;;;-147.65;100.00;57646.63;10438716;28;20037;-79
2023/08/29 11:56:22;;;;;;;1412.03;742.10;;;;;;;-147.65;100.00;57646.63;10439339;28;20056;-79
2023/08/29 12:01:23;;;;;;;1999.90;999.90;;;;;;;-147.65;100.00;57646.63;10423245;28;20043;-79
2023/08/29 12:06:25;;;;;;;1999.90;999.90;;;;;;;-147.65;100.00;57646.63;10445414;28;20057;-80
2023/08/29 12:11:29;;;;;;;;;;;;;;;-147.65;100.00;57646.63;10446075;28;20056;-79
2023/08/29 12:16:30;;;;;;;1999.90;999.90;;;;;;;-147.65;100.00;57646.63;10471496;28;19920;-80
2023/08/29 12:21:30;;;;;;;1999.90;999.90;;;;;;;-147.65;100.00;57646.63;10459306;28;20044;-79
2023/08/29 12:26:31;;;;;;;1999.90;999.90;;;;;;;-147.65;100.00;57646.63;10474243;28;20036;-80
2023/08/29 12:31:31;;;;;;;1999.90;999.90;;;;;;;-147.65;100.00;57646.63;10467965;28;20397;-80
2023/08/29 12:36:32;;;;;;;1999.90;999.90;;;;;;;-147.65;100.00;57646.63;10447551;28;20569;-80
2023/08/29 12:41:33;;;;;;;1999.90;999.90;;;;;;;-147.65;100.00;57646.63;10446496;28;20045;-80
2023/08/29 12:46:34;;;;;;;1999.90;999.90;;;;;;;-147.65;100.00;57646.63;10428012;28;20049;-79
2023/08/29 12:51:34;;;;;;;1999.90;999.90;;;;;;;-147.65;100.00;57646.63;10411443;28;20050;-80
2023/08/29 12:56:35;;;;;;;1999.90;999.90;;;;;;;-147.65;100.00;57646.63;10446710;28;20497;-80
2023/08/29 13:01:35;;;;;;;1999.90;999.90;;;;;;;-147.65;100.00;57646.63;10447161;28;20124;-80
2023/08/29 13:06:36;;;;;;;1999.90;999.90;;;;;;;-147.65;100.00;57646.63;10427693;28;21042;-79
2023/08/29 13:11:37;;;;;;;1999.90;999.90;;;;;;;-147.65;100.00;57646.63;10404894;28;20444;-80
2023/08/29 13:16:37;;;;;;;1999.90;999.90;;;;;;;-147.65;100.00;57646.63;10403637;28;20489;-80
2023/08/29 13:21:38;;;;;;;1999.90;999.90;;;;;;;-147.65;100.00;57646.63;10404517;28;20127;-80
2023/08/29 13:26:38;;;;;;;1999.90;999.90;;;;;;;-147.65;100.00;57646.63;10404385;28;20112;-80
2023/08/29 13:31:39;;;;;;;1999.90;999.90;;;;;;;-147.65;100.00;57646.63;10402501;28;20481;-80
2023/08/29 13:36:40;;;;;;;1999.90;999.90;;;;;;;-147.65;100.00;57646.63;10414309;28;20045;-80
2023/08/29 13:41:42;;;;;;;1999.90;999.90;;;;;;;-147.65;100.00;57646.63;10443513;28;20477;-80
2023/08/29 13:46:45;;;;;;;1999.90;999.90;;;;;;;-147.65;100.00;57646.63;10445038;28;20052;-78
2023/08/29 13:51:45;;;;;;;1199.25;649.78;;;;;;;-147.65;100.00;57646.63;10445305;28;20071;-78
2023/08/29 13:56:47;;;;;;;96.37;47.07;;;;;;;-147.65;100.00;57646.63;10444248;28;20557;-77
2023/08/29 14:01:47;;;;;;;;;;;;;;;-147.65;100.00;57646.63;10441556;28;20453;-78
2023/08/29 14:06:48;;;;;;;1999.90;999.90;;;;;;;-147.65;100.00;57646.63;10400340;28;20000;-78
2023/08/29 14:11:48;;;;;;;1999.90;999.90;;;;;;;-147.65;100.00;57646.63;10421110;28;20268;-78
2023/08/29 14:16:49;;;;;;;1999.90;999.90;;;;;;;-147.65;100.00;57646.63;10441732;28;20178;-78
2023/08/29 14:21:50;;;;;;;1999.90;999.90;;;;;;;-147.65;100.00;57646.63;10424023;28;20049;-77
2023/08/29 14:26:50;;;;;;;1999.90;999.90;;;;;;;-147.65;100.00;57646.63;10474812;28;20064;-77
2023/08/29 14:31:52;;;;;;;1999.90;999.90;;;;;;;-147.65;100.00;57646.63;10463830;28;20123;-79
2023/08/29 14:36:53;;;;;;;1999.90;999.90;;;;;;;-147.65;100.00;57646.63;10482262;28;20044;-79
2023/08/29 14:41:53;;;;;;;1999.90;999.90;;;;;;;-147.65;100.00;57646.63;10481739;28;20029;-80
2023/08/29 14:46:54;;;;;;;1999.90;999.90;;;;;;;-147.65;100.00;57646.63;10481488;28;20064;-80
2023/08/29 14:51:54;;;;;;;1999.90;999.90;;;;;;;-147.65;100.00;57646.63;10481514;28;20364;-80
2023/08/29 14:56:55;;;;;;;1999.90;999.90;;;;;;;-147.65;100.00;57646.63;10483514;28;20087;-79
2023/08/29 15:01:55;;;;;;;9.67;8.87;;;;;;;-147.65;100.00;57646.63;10467507;28;20159;-79
2023/08/29 15:06:56;;;;;;;7.03;4.20;;;;;;;-147.65;100.00;57646.63;10457583;28;20489;-78
2023/08/29 15:11:56;;;;;;;7.53;3.03;;;;;;;-147.65;100.00;57646.63;10441668;28;20060;-78
2023/08/29 15:16:57;;;;;;;3.43;3.13;;;;;;;-147.65;100.00;57646.63;10475878;28;20045;-78
2023/08/29 15:21:57;;;;;;;42.77;40.80;;;;;;;-147.65;100.00;57646.63;10442383;28;20045;-79
2023/08/29 15:26:58;;;;;;;190.07;182.13;;;;;;;-147.65;100.00;57646.63;10440565;28;20029;-79
2023/08/29 15:31:58;;;;;;;1999.90;999.90;;;;;;;-147.65;100.00;57646.63;10455988;28;20089;-79
2023/08/29 15:37:00;;;;;;;1999.90;999.90;;;;;;;-147.65;100.00;57646.63;10482681;28;20584;-79
2023/08/29 15:42:01;;;;;;;1999.90;999.90;;;;;;;-147.65;100.00;57646.63;10486837;28;20193;-79
2023/08/29 15:47:02;;;;;;;93.78;90.55;;;;;;;-147.65;100.00;57646.63;10490994;28;20109;-79
2023/08/29 15:52:02;;;;;;;1999.90;999.90;;;;;;;-147.65;100.00;57646.63;10472658;28;20048;-78
2023/08/29 15:57:03;;;;;;;1999.90;999.90;;;;;;;-147.65;100.00;57646.63;10448897;28;20036;-79
2023/08/29 16:02:04;;;;;;;1999.90;999.90;;;;;;;-147.65;100.00;57646.63;10448967;28;20124;-80
2023/08/29 16:07:04;;;;;;;1999.90;999.90;;;;;;;-147.65;100.00;57646.63;10447289;28;20045;-79
2023/08/29 16:12:05;;;;;;;1999.90;999.90;;;;;;;-147.65;100.00;57646.63;10448041;28;20065;-79
2023/08/29 16:17:06;;;;;;;1999.90;999.90;;;;;;;-147.65;100.00;57646.63;10452350;28;20116;-77
2023/08/29 16:22:08;;;;;;;1999.90;999.90;;;;;;;-147.65;100.00;57646.63;10480756;28;20036;-79
2023/08/29 16:27:09;;;;;;;1999.90;999.90;;;;;;;-147.65;100.00;57646.63;10444030;28;20044;-79
2023/08/29 16:32:09;;;;;;;1999.90;999.90;;;;;;;-147.65;100.00;57646.63;10407014;28;20091;-79
2023/08/29 16:37:10;;;;;;;1999.90;999.90;;;;;;;-147.65;100.00;57646.63;10444852;28;20114;-79
2023/08/29 16:42:10;;;;;;;1999.90;999.90;;;;;;;-147.65;100.00;57646.63;10444513;28;20033;-78
2023/08/29 16:47:11;;;;;;;113.47;39.40;;;;;;;-147.65;100.00;57646.63;10461169;28;20393;-80
2023/08/29 16:52:11;;;;;;;1999.90;999.90;;;;;;;-147.65;100.00;57646.63;10465182;28;20428;-79
2023/08/29 16:57:12;;;;;;;613.80;356.00;;;;;;;-147.65;100.00;57646.63;10445208;28;20049;-79
2023/08/29 17:02:12;;;;;;;1999.90;999.90;;;;;;;-147.65;100.00;57646.63;10423606;28;20040;-79
2023/08/29 17:07:13;;;;;;;1999.90;999.90;;;;;;;-147.65;100.00;57646.63;10441147;28;20037;-79
2023/08/29 17:12:19;;;;;;;1999.90;999.90;;;;;;;-147.65;100.00;57646.63;10443993;28;20029;-79
2023/08/29 17:17:23;;;;;;;1999.90;999.90;;;;;;;-147.65;100.00;57646.63;10482457;28;20044;-79
2023/08/29 17:22:24;;;;;;;1999.90;999.90;;;;;;;-147.65;100.00;57646.63;10464891;28;20045;-79
2023/08/29 17:27:24;;;;;;;1999.90;999.90;;;;;;;-147.65;100.00;57646.63;10485058;28;20683;-79
2023/08/29 17:32:25;;;;;;;1999.90;999.90;;;;;;;-147.65;100.00;57646.63;10482138;28;20521;-78
2023/08/29 17:37:25;;;;;;;1999.90;999.90;;;;;;;-147.65;100.00;57646.63;10468524;28;20127;-78
2023/08/29 17:42:26;;;;;;;34.17;30.60;;;;;;;-147.65;100.00;57646.63;10485301;28;20499;-78
2023/08/29 17:47:26;;;;;;;1999.90;999.90;;;;;;;-147.65;100.00;57646.63;10484162;28;20032;-78
2023/08/29 17:52:27;;;;;;;1999.90;999.90;;;;;;;-147.65;100.00;57646.63;10480539;28;20522;-78
2023/08/29 17:57:27;;;;;;;1999.90;999.90;;;;;;;-147.65;100.00;57646.63;10486209;28;20442;-78
2023/08/29 18:02:28;;;;;;;1999.90;999.90;;;;;;;-147.65;100.00;57646.63;10443857;28;20577;-78
2023/08/29 18:07:29;;;;;;;1999.90;999.90;;;;;;;-147.65;100.00;57646.63;10461127;28;20037;-78
2023/08/29 18:12:29;;;;;;;69.70;65.70;;;;;;;-147.65;100.00;57646.63;10463324;28;20493;-78
2023/08/29 18:17:30;;;;;;;75.55;30.52;;;;;;;-147.65;100.00;57646.63;10483997;28;20805;-78
2023/08/29 18:22:31;;;;;;;35.10;28.77;;;;;;;-147.65;100.00;57646.63;10483916;28;20397;-78
2023/08/29 18:27:32;;;;;;;1999.90;999.90;;;;;;;-147.65;100.00;57646.63;10437962;28;20067;-78
2023/08/29 18:32:32;;;;;;;1999.90;999.90;;;;;;;-147.65;100.00;57646.63;10474204;28;20085;-78
2023/08/29 18:37:33;;;;;;;1999.90;999.90;;;;;;;-147.65;100.00;57646.63;10477408;28;20052;-78
2023/08/29 18:42:33;;;;;;;1999.90;999.90;;;;;;;-147.65;100.00;57646.63;10483157;28;20580;-78
2023/08/29 18:47:34;;;;;;;1999.90;999.90;;;;;;;-147.65;100.00;57646.63;10485519;28;20040;-78
2023/08/29 18:52:35;;;;;;;1999.90;999.90;;;;;;;-147.65;100.00;57646.63;10477770;28;20044;-78
2023/08/29 18:57:35;;;;;;;168.00;112.45;;;;;;;-147.65;100.00;57646.63;10483744;28;20037;-77
2023/08/29 19:02:39;;;;;;;36.85;27.10;;;;;;;-147.65;100.00;57646.63;10481898;28;20230;-78
2023/08/29 19:07:40;;;;;;;41.88;30.77;;;;;;;-147.65;100.00;57646.63;10484659;28;20058;-79
2023/08/29 19:12:41;;;;;;;44.10;31.05;;;;;;;-147.65;100.00;57646.63;10483662;28;20040;-78
2023/08/29 19:17:42;;;;;;;39.25;31.77;;;;;;;-147.65;100.00;57646.63;10490307;28;20029;-78
2023/08/29 19:22:42;;;;;;;38.83;31.35;;;;;;;-147.65;100.00;57646.63;10492918;28;20037;-78
2023/08/29 19:27:43;;;;;;;42.13;32.05;;;;;;;-147.65;100.00;57646.63;10491093;28;20033;-78
2023/08/29 19:32:43;;;;;;;35.80;25.20;;;;;;;-147.65;100.00;57646.63;10486217;28;20119;-80
2023/08/29 19:37:44;;;;;;;37.83;28.83;;;;;;;-147.65;100.00;57646.63;10488796;28;20127;-78
2023/08/29 19:42:45;;;;;;;45.55;31.50;;;;;;;-147.65;100.00;57646.63;10484925;28;20041;-79
2023/08/29 19:47:46;;;;;;;43.53;33.90;;;;;;;-147.65;100.00;57646.63;10488505;28;20067;-81
2023/08/29 19:52:46;;;;;;;44.63;30.75;;;;;;;-147.65;100.00;57646.63;10475591;28;20041;-80
2023/08/29 19:57:47;;;;;;;45.30;31.17;;;;;;;-147.65;100.00;57646.63;10487156;28;20495;-80
2023/08/29 20:02:48;;;;;;;40.88;29.92;;;;;;;-147.65;100.00;57646.63;10489622;28;20379;-80
2023/08/29 20:07:48;;;;;;;42.88;30.45;;;;;;;-147.65;100.00;57646.63;10487777;28;20127;-80
2023/08/29 20:12:49;;;;;;;44.97;31.02;;;;;;;-147.65;100.00;57646.63;10490262;28;20458;-80
2023/08/29 20:17:49;;;;;;;40.17;29.67;;;;;;;-147.65;100.00;57646.63;10490735;28;20048;-80
2023/08/29 20:22:50;;;;;;;37.03;26.30;;;;;;;-147.65;100.00;57646.63;10489257;28;20074;-81
2023/08/29 20:27:50;;;;;;;42.28;28.73;;;;;;;-147.65;100.00;57646.63;10484782;28;20044;-81
2023/08/29 20:32:51;;;;;;;63.65;30.60;;;;;;;-147.65;100.00;57646.63;10489460;28;20691;-80
2023/08/29 20:37:55;;;;;;;44.42;25.90;;;;;;;-147.65;100.00;57646.63;10487065;28;20036;-81
2023/08/29 20:42:55;;;;;;;37.80;25.08;;;;;;;-147.65;100.00;57646.63;10488807;28;20041;-80
2023/08/29 20:47:56;;;;;;;46.20;29.10;;;;;;;-147.65;100.00;57646.63;10487073;28;20462;-81
2023/08/29 20:52:56;;;;;;;44.45;28.80;;;;;;;-147.65;100.00;57646.63;10492310;28;20123;-80
2023/08/29 20:57:59;;;;;;;42.42;28.08;;;;;;;-147.65;100.00;57646.63;10444468;28;20044;-81
2023/08/29 21:02:59;;;;;;;;;;;;;;;-147.65;100.00;57646.63;10446452;28;20033;-80
2023/08/29 21:08:00;;;;;;;50.63;31.85;;;;;;;-147.65;100.00;57646.63;10479622;28;20300;-80
2023/08/29 21:13:00;;;;;;;40.40;29.98;;;;;;;-147.65;100.00;57646.63;10486029;28;20051;-80
2023/08/29 21:18:01;;;;;;;50.08;34.50;;;;;;;-147.65;100.00;57646.63;10482149;28;20066;-80
2023/08/29 21:23:01;;;;;;;46.60;29.15;;;;;;;-147.65;100.00;57646.63;10485871;28;20039;-80
2023/08/29 21:28:02;;;;;;;45.42;31.55;;;;;;;-147.65;100.00;57646.63;10469596;28;20033;-80
2023/08/29 21:33:03;;;;;;;45.45;29.90;;;;;;;-147.65;100.00;57646.63;10484927;28;20075;-80
2023/08/29 21:38:03;;;;;;;43.90;30.05;;;;;;;-147.65;100.00;57646.63;10484000;28;20420;-80
2023/08/29 21:43:06;;;;;;;38.40;27.42;;;;;;;-147.65;100.00;57646.63;10487228;28;20061;-80
2023/08/29 21:48:08;;;;;;;41.63;28.95;;;;;;;-147.65;100.00;57646.63;10463246;28;20519;-80